Terminal Aerodrome Forecast
Issued by NWS Twin Cities, MN

Home | Current Version | Previous Version | Text Only | Print | Product List | Glossary Off
Versions: 1 2 3 4 5 6 7 8 9 10 11 12 13 14 15

000
FTUS43 KMPX 190500
TAFSTC
TAF
KSTC 190526Z 1906/2006 16007KT P6SM BKN150
     FM191400 22011KT P6SM SCT150
     FM192000 27010KT P6SM SKC
     FM200100 31006KT P6SM SKC=

USA.gov is the U.S. government's official web portal to all federal, state and local government web resources and services.